Portada
METAR-TAF:

METAR-TAF

Aeropuertos :

Base Aérea de Almagro

Almagro, España

latitud: 38-57-11N, longitud: 3-44-29W, altitud: 629 m

Observación

El informe se hizo hace 1 hora y 1 minutos, a las 08:00 UTC
Viento 1 kt con dirección variable
Temperatura 0°C
Humedad 80%
Presión 1032 hPa
Visibilidad 10 km o más
sin nubes por debajo de 1500 m y sin presencia de cumulonimbus.

METAR: LEAO 220800Z VRB01KT CAVOK 00/M03 Q1032

Hora: 10:01 (09:01 UTC)

Pronóstico

El informe se hizo hace 1 hora y 1 minutos, a las 08:00 UTC
Pronóstico válido del 22 a las 09 UTC al 22 a las 18 UTC
Viento 4 kt del este-noreste
Visibilidad 10 km o más
sin nubes por debajo de 1500 m y sin presencia de cumulonimbus.

TAF: LEAO 220800Z 2209/2218 07004KT CAVOK

Observaciones y pronósticos meteorológicos de más de 4000 aeropuertos (mensajes METAR y TAF).

Los puntos amarillos y rojos representan las estaciones disponibles.

Ponga el ratón en el punto deseado para ver el nombre de la estación.

Haga clic para ver las observaciones y los pronósticos meteorológicos.

Para cambiar el mapa : haga clic en los botones verdes con una cruz de color negro para hacer un zoom, en el botón verde con un guión para alejar o en las flechas verdes para mapas adyacentes.


METAR-TAF: